Time;durP1;ratioP1;P1;durP2;ratioP2;P2;SDS_P1;SDS_P2;PMS_P1;PMS_P2;Temp;Humidity;BMP_temperature;BMP_pressure;BME280_temperature;BME280_humidity;BME280_pressure;Samples;Min_cycle;Max_cycle;Signal;HPM_P1;HPM_P2
2023/01/22 00:02:24;;;;;;;16.70;9.17;;;-0.30;64.50;;;;;;4996722;28;46622;-62
2023/01/22 00:04:49;;;;;;;19.17;9.33;;;-0.20;64.50;;;;;;4996522;28;46304;-62
2023/01/22 00:07:16;;;;;;;18.07;9.50;;;-0.10;64.10;;;;;;4995851;28;46505;-62
2023/01/22 00:09:41;;;;;;;15.07;8.95;;;0.10;63.70;;;;;;4995587;28;46472;-62
2023/01/22 00:12:07;;;;;;;17.07;9.93;;;0.10;63.30;;;;;;4996810;28;46328;-63
2023/01/22 00:14:33;;;;;;;16.23;9.15;;;0.20;62.90;;;;;;4997614;28;47221;-64
2023/01/22 00:16:59;;;;;;;17.43;9.13;;;0.40;62.90;;;;;;4997686;28;45921;-63
2023/01/22 00:19:24;;;;;;;17.40;9.67;;;0.30;62.90;;;;;;5000446;28;46475;-63
2023/01/22 00:21:50;;;;;;;16.90;9.20;;;0.30;62.90;;;;;;4999316;28;45922;-63
2023/01/22 00:24:16;;;;;;;16.60;9.07;;;0.30;63.00;;;;;;4999983;28;46436;-64
2023/01/22 00:26:41;;;;;;;17.13;9.85;;;0.40;62.90;;;;;;4999115;28;46436;-64
2023/01/22 00:29:07;;;;;;;17.23;9.77;;;0.50;62.90;;;;;;5000209;28;46495;-63
2023/01/22 00:31:33;;;;;;;20.33;9.70;;;0.60;62.50;;;;;;4999666;28;46633;-62
2023/01/22 00:33:58;;;;;;;16.57;9.37;;;0.70;62.80;;;;;;4999774;28;47226;-62
2023/01/22 00:36:24;;;;;;;18.33;9.50;;;0.60;62.60;;;;;;4999008;28;46431;-62
2023/01/22 00:38:50;;;;;;;16.90;8.77;;;0.60;62.70;;;;;;4999610;28;46460;-62
2023/01/22 00:41:18;;;;;;;18.02;9.00;;;0.50;62.90;;;;;;4999393;28;46511;-63
2023/01/22 00:43:44;;;;;;;15.45;8.48;;;0.70;62.90;;;;;;4999802;28;46437;-62
2023/01/22 00:46:12;;;;;;;17.13;9.57;;;0.60;62.90;;;;;;5000183;28;46442;-64
2023/01/22 00:48:38;;;;;;;16.67;9.02;;;0.40;63.30;;;;;;4999838;28;45893;-61
2023/01/22 00:51:04;;;;;;;17.50;9.43;;;0.30;63.50;;;;;;4999935;28;45921;-63
2023/01/22 00:53:30;;;;;;;16.35;9.13;;;0.20;63.60;;;;;;4998827;28;46432;-62
2023/01/22 00:55:59;;;;;;;17.33;9.53;;;0.20;63.70;;;;;;5000618;28;45857;-63
2023/01/22 00:58:25;;;;;;;16.80;9.43;;;0.30;63.40;;;;;;4998712;28;46420;-63
2023/01/22 01:00:52;;;;;;;17.40;10.85;;;0.40;63.00;;;;;;4999368;28;45853;-64
2023/01/22 01:03:30;;;;;;;16.90;9.10;;;0.50;62.80;;;;;;4998233;28;46499;-63
2023/01/22 01:06:01;;;;;;;18.45;9.70;;;0.40;63.00;;;;;;4998739;28;46378;-63
2023/01/22 01:08:28;;;;;;;14.00;8.38;;;0.40;64.00;;;;;;4998202;28;46451;-63
2023/01/22 01:10:59;;;;;;;16.48;8.40;;;0.40;62.90;;;;;;4999427;28;46464;-62
2023/01/22 01:13:25;;;;;;;20.17;10.27;;;0.50;62.90;;;;;;5000045;28;46394;-63
2023/01/22 01:16:02;;;;;;;20.27;9.73;;;0.60;62.70;;;;;;4998407;28;46631;-63
2023/01/22 01:18:29;;;;;;;16.30;9.32;;;0.70;62.50;;;;;;4997887;28;46998;-64
2023/01/22 01:20:55;;;;;;;21.98;10.73;;;0.60;62.70;;;;;;4997843;28;46465;-63
2023/01/22 01:23:22;;;;;;;16.92;10.10;;;0.60;62.70;;;;;;4998107;28;46673;-63
2023/01/22 01:25:48;;;;;;;16.95;9.20;;;0.70;62.20;;;;;;4999408;28;46464;-63
2023/01/22 01:28:13;;;;;;;21.80;11.93;;;0.70;62.30;;;;;;4998615;28;46710;-64
2023/01/22 01:30:39;;;;;;;20.43;11.13;;;0.60;62.60;;;;;;5000175;28;46386;-64
2023/01/22 01:33:04;;;;;;;22.83;12.47;;;0.70;62.50;;;;;;5002124;28;46447;-63
2023/01/22 01:35:30;;;;;;;21.93;11.50;;;0.80;62.30;;;;;;5007283;28;46836;-63
2023/01/22 01:37:56;;;;;;;37.93;19.90;;;1.00;62.00;;;;;;4997555;28;46420;-62
2023/01/22 01:40:21;;;;;;;29.57;15.00;;;0.90;61.70;;;;;;4998659;28;46849;-62
2023/01/22 01:42:47;;;;;;;30.70;17.07;;;0.80;62.00;;;;;;4998537;28;46976;-62
2023/01/22 01:45:28;;;;;;;26.13;15.23;;;0.90;62.00;;;;;;4999265;28;46443;-62
2023/01/22 01:48:08;;;;;;;23.08;13.00;;;0.90;61.90;;;;;;4998949;28;45851;-62
2023/01/22 01:50:36;;;;;;;24.83;11.55;;;1.00;61.90;;;;;;4998808;28;46677;-63
2023/01/22 01:53:02;;;;;;;18.15;11.52;;;1.00;62.00;;;;;;4998432;28;46385;-63
2023/01/22 01:55:30;;;;;;;27.13;14.07;;;1.00;62.00;;;;;;4997990;28;46635;-63
2023/01/22 01:57:59;;;;;;;23.00;11.93;;;0.90;61.90;;;;;;4996575;28;46581;-64
2023/01/22 02:00:29;;;;;;;21.35;10.55;;;0.80;62.20;;;;;;4998179;28;46723;-65
2023/01/22 02:02:56;;;;;;;16.90;9.13;;;0.90;62.30;;;;;;4994810;28;47243;-64
2023/01/22 02:05:22;;;;;;;17.60;10.55;;;1.00;61.90;;;;;;4996876;28;46535;-65
2023/01/22 02:07:48;;;;;;;23.08;12.45;;;1.20;61.60;;;;;;4998412;28;46411;-64
2023/01/22 02:10:14;;;;;;;16.93;10.37;;;1.20;61.30;;;;;;4998053;28;46678;-64
2023/01/22 02:12:40;;;;;;;20.57;10.30;;;1.20;61.60;;;;;;4997889;28;46344;-64
2023/01/22 02:15:07;;;;;;;19.20;11.20;;;1.30;61.60;;;;;;4999016;28;46614;-63
2023/01/22 02:17:32;;;;;;;17.27;10.90;;;1.30;61.50;;;;;;4997789;28;46396;-64
2023/01/22 02:19:58;;;;;;;21.17;10.07;;;1.20;61.90;;;;;;4997420;28;45859;-62
2023/01/22 02:22:29;;;;;;;17.00;10.23;;;1.20;62.00;;;;;;4997700;28;46435;-62
2023/01/22 02:24:55;;;;;;;18.55;10.32;;;1.30;61.70;;;;;;4996772;28;46386;-63
2023/01/22 02:27:21;;;;;;;16.77;9.00;;;1.40;61.50;;;;;;4997345;28;46657;-63
2023/01/22 02:29:47;;;;;;;18.88;11.25;;;1.50;61.40;;;;;;4997570;28;46391;-62
2023/01/22 02:32:13;;;;;;;17.57;10.13;;;1.50;61.50;;;;;;4997579;28;46667;-63
2023/01/22 02:34:39;;;;;;;21.67;10.83;;;1.50;61.40;;;;;;4997497;28;46444;-63
2023/01/22 02:37:04;;;;;;;18.73;10.93;;;1.60;61.40;;;;;;4995930;28;46391;-63
2023/01/22 02:39:30;;;;;;;16.77;10.17;;;1.60;61.40;;;;;;4996208;28;46387;-63
2023/01/22 02:41:56;;;;;;;19.83;10.37;;;1.70;61.50;;;;;;4997678;28;46563;-63
2023/01/22 02:44:22;;;;;;;17.08;10.52;;;1.60;61.20;;;;;;4997234;28;45839;-64
2023/01/22 02:46:47;;;;;;;18.13;10.27;;;1.80;61.30;;;;;;4997660;28;46391;-63
2023/01/22 02:49:13;;;;;;;20.33;10.67;;;1.60;61.40;;;;;;4998074;28;46654;-64
2023/01/22 02:51:39;;;;;;;16.87;10.20;;;1.60;61.30;;;;;;4996253;28;47199;-63
2023/01/22 02:54:04;;;;;;;16.73;9.90;;;1.60;61.20;;;;;;4996395;28;46416;-63
2023/01/22 02:56:32;;;;;;;18.83;11.40;;;1.60;61.40;;;;;;4996302;28;46432;-63
2023/01/22 02:58:59;;;;;;;17.58;9.93;;;1.50;61.40;;;;;;4996885;28;46427;-63
2023/01/22 03:01:25;;;;;;;17.90;9.68;;;1.50;61.50;;;;;;4996604;28;46407;-63
2023/01/22 03:03:53;;;;;;;16.57;9.33;;;1.50;61.70;;;;;;4995944;28;46479;-63
2023/01/22 03:06:22;;;;;;;15.68;9.60;;;1.40;61.70;;;;;;4996303;28;46360;-64
2023/01/22 03:08:51;;;;;;;17.02;9.75;;;1.50;61.70;;;;;;4996979;28;46520;-63
2023/01/22 03:11:16;;;;;;;18.83;10.98;;;1.50;61.60;;;;;;4996552;28;46412;-62
2023/01/22 03:21:54;;;;;;;21.20;10.27;;;1.40;61.90;;;;;;4996940;28;46621;-63
2023/01/22 03:24:20;;;;;;;16.13;9.70;;;1.40;61.70;;;;;;4994971;28;46442;-63
2023/01/22 03:26:46;;;;;;;19.37;10.43;;;1.20;62.00;;;;;;4995596;28;46433;-63
2023/01/22 03:29:11;;;;;;;19.23;9.80;;;1.10;61.80;;;;;;4996205;28;46714;-62
2023/01/22 03:31:37;;;;;;;18.80;10.30;;;1.00;63.10;;;;;;4997339;28;46997;-62
2023/01/22 03:34:02;;;;;;;18.90;10.10;;;0.80;62.00;;;;;;4986763;28;46455;-63
2023/01/22 03:36:28;;;;;;;19.00;9.43;;;0.90;62.20;;;;;;4996513;28;46308;-63
2023/01/22 03:38:54;;;;;;;14.80;9.30;;;1.00;61.90;;;;;;4997510;28;46817;-62
2023/01/22 03:41:20;;;;;;;17.23;9.27;;;0.90;61.90;;;;;;4995917;28;47090;-63
2023/01/22 03:43:46;;;;;;;15.97;8.87;;;0.80;62.20;;;;;;4995849;28;46596;-62
2023/01/22 03:46:14;;;;;;;20.00;10.02;;;0.50;62.40;;;;;;4996761;28;46497;-63
2023/01/22 03:48:40;;;;;;;17.92;9.75;;;0.60;62.60;;;;;;4996898;28;46419;-63
2023/01/22 03:51:05;;;;;;;16.60;10.43;;;0.60;62.40;;;;;;4997498;28;46454;-63
2023/01/22 03:53:31;;;;;;;20.17;10.20;;;0.70;62.00;;;;;;4997984;28;46816;-64
2023/01/22 03:55:59;;;;;;;18.92;10.07;;;0.80;61.60;;;;;;5001068;28;46400;-65
2023/01/22 03:58:25;;;;;;;18.85;9.77;;;0.80;61.60;;;;;;4999102;28;46590;-65
2023/01/22 04:00:50;;;;;;;20.98;11.40;;;0.70;61.50;;;;;;4999715;28;47263;-61
2023/01/22 04:03:16;;;;;;;17.23;9.53;;;0.80;61.60;;;;;;4999547;28;46325;-63
2023/01/22 04:05:42;;;;;;;21.23;11.70;;;0.80;61.40;;;;;;5000149;28;46720;-63
2023/01/22 04:08:07;;;;;;;19.50;11.50;;;0.80;61.50;;;;;;4999966;28;46677;-63
2023/01/22 04:10:33;;;;;;;22.40;12.07;;;0.80;61.40;;;;;;4999950;28;46373;-64
2023/01/22 04:12:58;;;;;;;20.40;11.70;;;0.90;62.00;;;;;;4999553;28;46485;-63
2023/01/22 04:15:24;;;;;;;17.30;9.90;;;1.00;61.20;;;;;;5000362;28;46685;-64
2023/01/22 04:17:49;;;;;;;24.73;12.83;;;1.10;61.00;;;;;;4998924;28;46511;-63
2023/01/22 04:20:15;;;;;;;18.17;10.80;;;1.20;61.00;;;;;;4999978;28;46488;-64
2023/01/22 04:22:41;;;;;;;17.40;10.73;;;1.20;61.00;;;;;;4999073;28;46467;-62
2023/01/22 04:25:07;;;;;;;20.23;10.57;;;1.20;61.10;;;;;;4999140;28;46815;-63
2023/01/22 04:27:36;;;;;;;19.97;10.57;;;1.20;61.10;;;;;;4999884;28;46586;-62
2023/01/22 04:30:06;;;;;;;18.60;10.63;;;1.20;61.20;;;;;;4999002;28;46404;-63
2023/01/22 04:32:31;;;;;;;20.50;11.20;;;1.20;61.20;;;;;;4999651;28;46467;-63
2023/01/22 04:34:57;;;;;;;17.33;9.50;;;1.10;61.50;;;;;;4999852;28;46527;-63
2023/01/22 04:37:23;;;;;;;21.15;11.55;;;0.90;61.60;;;;;;4999470;28;46580;-63
2023/01/22 04:39:48;;;;;;;22.90;11.13;;;0.80;61.70;;;;;;4997850;28;46844;-62
2023/01/22 04:42:14;;;;;;;18.17;11.03;;;1.00;61.70;;;;;;4999598;28;46356;-64
2023/01/22 04:44:39;;;;;;;19.70;10.50;;;1.00;61.60;;;;;;4997618;28;46395;-63
2023/01/22 04:47:06;;;;;;;19.42;10.73;;;1.00;61.60;;;;;;4999596;28;46620;-63
2023/01/22 04:49:32;;;;;;;20.53;12.23;;;0.90;61.30;;;;;;5000265;28;46525;-64
2023/01/22 04:51:57;;;;;;;24.20;11.80;;;0.70;61.60;;;;;;4998886;28;46419;-65
2023/01/22 04:54:23;;;;;;;21.70;11.93;;;0.70;61.80;;;;;;5000302;28;46441;-63
2023/01/22 04:56:49;;;;;;;29.70;15.00;;;0.80;61.80;;;;;;4999507;28;46492;-63
2023/01/22 04:59:14;;;;;;;26.60;13.70;;;0.70;61.70;;;;;;4999319;28;47151;-62
2023/01/22 05:01:41;;;;;;;22.43;12.63;;;0.70;62.00;;;;;;4998213;28;46442;-64
2023/01/22 05:04:06;;;;;;;21.10;11.40;;;0.60;62.10;;;;;;4999245;28;46506;-64
2023/01/22 05:06:32;;;;;;;18.60;10.30;;;0.50;62.20;;;;;;4998069;28;46524;-65
2023/01/22 05:08:57;;;;;;;17.67;10.37;;;0.40;62.10;;;;;;5000292;28;47266;-64
2023/01/22 05:11:23;;;;;;;18.93;11.27;;;0.30;62.30;;;;;;5000233;28;46669;-63
2023/01/22 05:13:48;;;;;;;19.10;10.90;;;0.20;62.40;;;;;;5002059;28;46360;-63
2023/01/22 05:16:14;;;;;;;21.07;11.33;;;0.10;62.60;;;;;;5007764;28;46076;-64
2023/01/22 05:18:40;;;;;;;21.00;11.50;;;0.00;62.70;;;;;;4999736;28;46521;-63
2023/01/22 05:21:05;;;;;;;21.90;11.80;;;0.00;62.50;;;;;;4998763;28;46405;-64
2023/01/22 05:23:31;;;;;;;19.97;10.93;;;0.00;62.40;;;;;;4999565;28;45863;-63
2023/01/22 05:25:56;;;;;;;19.07;9.97;;;0.00;62.20;;;;;;4999005;28;45917;-63
2023/01/22 05:28:22;;;;;;;25.90;11.20;;;0.00;62.30;;;;;;4998864;28;46000;-63
2023/01/22 05:30:48;;;;;;;21.30;12.33;;;-0.10;62.50;;;;;;4998762;28;46451;-63
2023/01/22 05:33:13;;;;;;;22.97;11.43;;;-0.10;62.30;;;;;;4998555;28;46559;-63
2023/01/22 05:35:39;;;;;;;18.70;10.70;;;-0.10;62.40;;;;;;4999119;28;46571;-64
2023/01/22 05:38:04;;;;;;;20.60;11.80;;;-0.10;62.40;;;;;;4998342;28;46428;-64
2023/01/22 05:40:30;;;;;;;20.07;11.70;;;0.00;62.20;;;;;;4998570;28;46953;-65
2023/01/22 05:42:56;;;;;;;22.60;11.37;;;0.00;62.20;;;;;;4998109;28;46480;-64
2023/01/22 05:45:21;;;;;;;22.23;11.30;;;0.00;62.10;;;;;;4998761;28;46475;-63
2023/01/22 05:47:52;;;;;;;22.97;11.10;;;0.00;62.00;;;;;;4999045;28;46422;-63
2023/01/22 05:50:18;;;;;;;21.77;11.13;;;0.00;62.30;;;;;;4999011;28;46376;-62
2023/01/22 05:52:43;;;;;;;23.93;11.63;;;0.00;62.30;;;;;;4998328;28;46421;-62
2023/01/22 05:55:09;;;;;;;19.70;11.80;;;-0.10;62.10;;;;;;4999955;28;46661;-64
2023/01/22 05:57:35;;;;;;;27.20;13.63;;;-0.10;62.00;;;;;;4996945;28;47230;-62
2023/01/22 06:00:02;;;;;;;25.52;14.13;;;-0.10;62.20;;;;;;4999456;28;46426;-63
2023/01/22 06:02:27;;;;;;;27.30;14.10;;;-0.10;62.30;;;;;;4998320;28;46459;-62
2023/01/22 06:04:55;;;;;;;24.90;14.00;;;-0.10;62.20;;;;;;4999945;28;46510;-62
2023/01/22 06:07:21;;;;;;;26.33;13.52;;;0.00;62.30;;;;;;4996941;28;47465;-64
2023/01/22 06:09:47;;;;;;;25.50;14.63;;;0.10;62.40;;;;;;4998941;28;46397;-65
2023/01/22 06:12:14;;;;;;;29.50;14.97;;;0.20;62.00;;;;;;4998579;28;46499;-64
2023/01/22 06:14:40;;;;;;;26.85;13.05;;;0.20;61.70;;;;;;4996713;28;46714;-62
2023/01/22 06:17:06;;;;;;;22.57;13.10;;;0.10;61.50;;;;;;4998715;28;47030;-63
2023/01/22 06:19:31;;;;;;;23.87;13.00;;;0.10;61.70;;;;;;4997788;28;46434;-63
2023/01/22 06:21:57;;;;;;;26.00;12.90;;;0.00;61.90;;;;;;4998508;28;46508;-63
2023/01/22 06:24:22;;;;;;;29.70;14.27;;;-0.10;62.00;;;;;;4998348;28;46638;-61
2023/01/22 06:26:48;;;;;;;24.07;13.57;;;0.00;62.00;;;;;;4996032;28;46681;-64
2023/01/22 06:29:13;;;;;;;27.63;13.00;;;-0.20;62.40;;;;;;4997981;28;46874;-64
2023/01/22 06:31:39;;;;;;;27.40;12.90;;;-0.30;62.70;;;;;;4995297;28;46449;-62
2023/01/22 06:34:05;;;;;;;23.77;14.13;;;-0.40;62.60;;;;;;4996506;28;45947;-62
2023/01/22 06:36:30;;;;;;;24.07;13.60;;;-0.30;62.70;;;;;;4995888;28;46436;-64
2023/01/22 06:38:56;;;;;;;25.90;14.03;;;-0.20;62.40;;;;;;4996914;28;45909;-63
2023/01/22 06:41:22;;;;;;;29.27;14.00;;;-0.10;62.40;;;;;;4996355;28;47408;-61
2023/01/22 06:43:47;;;;;;;29.17;15.77;;;0.00;62.30;;;;;;4997012;28;46792;-61
2023/01/22 06:46:13;;;;;;;37.37;18.63;;;0.00;62.00;;;;;;4996590;28;46767;-63
2023/01/22 06:48:42;;;;;;;38.73;19.83;;;0.00;61.80;;;;;;4996163;28;46468;-63
2023/01/22 06:51:09;;;;;;;34.67;17.67;;;0.10;61.90;;;;;;4996904;28;46393;-62
2023/01/22 06:53:34;;;;;;;32.25;16.83;;;0.00;61.80;;;;;;4996730;28;46662;-63
2023/01/22 06:56:00;;;;;;;26.57;14.57;;;0.10;61.90;;;;;;4995310;28;46396;-62
2023/01/22 06:58:26;;;;;;;29.10;15.80;;;0.10;61.90;;;;;;4995256;28;45913;-62
2023/01/22 07:00:52;;;;;;;26.20;13.70;;;0.10;61.80;;;;;;4996013;28;46439;-63
2023/01/22 07:03:18;;;;;;;25.73;14.53;;;0.20;62.10;;;;;;4996106;28;46399;-62
2023/01/22 07:05:43;;;;;;;30.50;16.60;;;0.00;62.10;;;;;;4996023;28;46444;-61
2023/01/22 07:08:14;;;;;;;25.97;14.57;;;0.00;62.30;;;;;;4996216;28;46455;-62
2023/01/22 07:10:40;;;;;;;25.63;13.30;;;0.10;62.00;;;;;;4994684;28;46379;-61
2023/01/22 07:13:09;;;;;;;25.30;13.60;;;0.10;62.10;;;;;;4996547;28;46485;-61
2023/01/22 07:15:34;;;;;;;25.15;13.77;;;0.10;62.20;;;;;;4977970;28;47977;-62
2023/01/22 07:18:00;;;;;;;21.90;12.40;;;0.20;62.20;;;;;;4995527;28;46360;-63
2023/01/22 07:20:26;;;;;;;30.83;15.00;;;0.20;62.00;;;;;;4995702;28;45840;-61
2023/01/22 07:22:51;;;;;;;26.50;13.47;;;0.30;61.70;;;;;;4995580;28;46498;-61
2023/01/22 07:25:18;;;;;;;22.60;13.00;;;0.50;61.30;;;;;;4996015;28;46540;-63
2023/01/22 07:27:44;;;;;;;25.48;14.18;;;0.80;61.00;;;;;;4998871;28;46549;-64
2023/01/22 07:30:10;;;;;;;28.63;14.27;;;0.70;60.80;;;;;;5000711;28;46508;-62
2023/01/22 07:32:35;;;;;;;26.25;13.77;;;0.80;61.10;;;;;;4999576;28;46499;-63
2023/01/22 07:35:01;;;;;;;25.63;14.23;;;0.90;60.90;;;;;;5000056;28;46114;-62
2023/01/22 07:37:26;;;;;;;27.40;13.97;;;0.90;61.00;;;;;;4999349;28;46428;-61
2023/01/22 07:39:52;;;;;;;19.00;11.03;;;0.90;61.70;;;;;;5000526;28;46637;-62
2023/01/22 07:42:18;;;;;;;20.90;11.23;;;1.00;61.00;;;;;;5001890;28;46429;-63
2023/01/22 07:44:43;;;;;;;22.70;12.60;;;1.10;60.90;;;;;;4998945;28;47177;-63
2023/01/22 07:47:09;;;;;;;24.77;11.83;;;1.20;60.50;;;;;;4998079;28;46411;-63
2023/01/22 07:49:34;;;;;;;21.77;12.07;;;1.40;60.40;;;;;;4997911;28;46378;-63
2023/01/22 07:52:00;;;;;;;18.90;10.23;;;1.50;60.50;;;;;;4999167;28;46688;-63
2023/01/22 07:54:26;;;;;;;18.53;11.10;;;1.40;60.80;;;;;;4999170;28;46975;-63
2023/01/22 07:56:51;;;;;;;16.33;9.00;;;1.40;60.90;;;;;;5000752;28;45777;-62
2023/01/22 07:59:17;;;;;;;17.53;10.20;;;1.30;60.60;;;;;;5000842;28;46436;-63
2023/01/22 08:01:42;;;;;;;17.30;9.20;;;1.20;60.70;;;;;;5001092;28;46479;-63
2023/01/22 08:04:08;;;;;;;20.97;10.87;;;1.10;60.50;;;;;;4999544;28;46962;-62
2023/01/22 08:06:34;;;;;;;17.60;9.83;;;1.00;60.70;;;;;;4998789;28;46254;-64
2023/01/22 08:08:59;;;;;;;18.90;10.90;;;1.00;60.70;;;;;;5000459;28;46439;-61
2023/01/22 08:11:26;;;;;;;23.10;11.20;;;1.10;60.60;;;;;;5001080;28;46425;-64
2023/01/22 08:13:53;;;;;;;17.75;11.05;;;1.10;60.50;;;;;;5000573;28;46548;-63
2023/01/22 08:16:19;;;;;;;21.95;10.90;;;1.10;60.30;;;;;;4998877;28;46506;-62
2023/01/22 08:18:45;;;;;;;18.15;10.57;;;1.10;60.50;;;;;;4999733;28;45850;-63
2023/01/22 08:21:11;;;;;;;16.10;9.63;;;1.00;60.40;;;;;;4999376;28;46429;-63
2023/01/22 08:23:36;;;;;;;18.40;11.30;;;1.10;60.30;;;;;;4999991;28;47023;-63
2023/01/22 08:26:03;;;;;;;18.47;11.20;;;1.10;60.10;;;;;;5000402;28;46427;-63
2023/01/22 08:28:30;;;;;;;16.58;9.45;;;1.20;60.00;;;;;;4980938;28;46415;-63
2023/01/22 08:31:00;;;;;;;17.45;10.75;;;1.30;60.00;;;;;;4999688;28;46384;-63
2023/01/22 08:33:27;;;;;;;20.50;13.02;;;1.00;60.40;;;;;;4991347;28;46911;-62
2023/01/22 08:35:53;;;;;;;22.33;12.32;;;1.00;60.00;;;;;;4997434;28;46500;-62
2023/01/22 08:38:18;;;;;;;21.17;11.53;;;1.00;59.80;;;;;;4996419;28;46440;-63
2023/01/22 08:40:48;;;;;;;19.40;11.17;;;1.00;59.50;;;;;;4998301;28;46357;-62
2023/01/22 08:43:14;;;;;;;19.02;11.25;;;0.90;59.60;;;;;;4980005;28;46452;-62
2023/01/22 08:45:39;;;;;;;15.97;10.10;;;0.90;59.60;;;;;;4997714;28;46585;-63
2023/01/22 08:48:05;;;;;;;17.87;10.57;;;0.90;59.90;;;;;;4996753;28;46431;-64
2023/01/22 08:50:31;;;;;;;16.33;10.40;;;1.00;59.80;;;;;;4995803;28;46522;-63
2023/01/22 08:52:56;;;;;;;18.47;11.30;;;1.10;59.90;;;;;;4997527;28;46448;-61
2023/01/22 08:55:22;;;;;;;21.87;10.70;;;1.10;59.80;;;;;;4995833;28;46676;-63
2023/01/22 08:57:53;;;;;;;20.57;10.80;;;1.20;59.30;;;;;;4996900;28;46486;-63
2023/01/22 09:00:19;;;;;;;26.85;12.50;;;1.40;58.80;;;;;;4998388;28;46431;-63
2023/01/22 09:02:44;;;;;;;20.50;11.23;;;1.40;58.20;;;;;;4997377;28;47773;-63
2023/01/22 09:05:10;;;;;;;17.33;11.17;;;1.40;58.10;;;;;;5007891;28;46566;-63
2023/01/22 09:07:35;;;;;;;20.97;11.90;;;1.40;58.20;;;;;;4995203;28;45909;-63
2023/01/22 09:10:01;;;;;;;24.87;11.97;;;1.50;57.80;;;;;;4997092;28;46499;-62
2023/01/22 09:12:27;;;;;;;18.63;10.90;;;1.50;57.60;;;;;;4998399;28;46755;-63
2023/01/22 09:14:52;;;;;;;18.13;10.50;;;1.30;58.10;;;;;;4996791;28;46438;-63
2023/01/22 09:17:18;;;;;;;17.10;10.60;;;1.20;58.50;;;;;;4996777;28;46688;-63
2023/01/22 09:19:43;;;;;;;18.47;11.30;;;1.20;58.90;;;;;;4996787;28;47363;-62
2023/01/22 09:22:09;;;;;;;19.20;11.60;;;1.30;58.70;;;;;;4996004;28;47065;-63
2023/01/22 09:24:34;;;;;;;26.20;12.30;;;1.40;58.20;;;;;;4995469;28;46436;-62
2023/01/22 09:27:00;;;;;;;19.20;11.90;;;1.60;58.00;;;;;;4995074;28;46477;-64
2023/01/22 09:29:26;;;;;;;19.60;11.47;;;1.60;57.80;;;;;;4997717;28;46364;-63
2023/01/22 09:31:51;;;;;;;21.07;12.37;;;1.80;57.30;;;;;;4996097;28;47384;-63
2023/01/22 09:34:17;;;;;;;17.60;10.73;;;2.10;56.70;;;;;;4996582;28;46442;-63
2023/01/22 09:36:44;;;;;;;18.93;10.50;;;2.20;56.10;;;;;;4996247;28;46396;-64
2023/01/22 09:39:10;;;;;;;17.70;9.55;;;2.30;55.90;;;;;;4996195;28;46544;-63
2023/01/22 09:41:38;;;;;;;15.03;9.70;;;2.20;56.50;;;;;;4995350;28;47247;-62
2023/01/22 09:44:22;;;;;;;15.00;9.13;;;2.20;56.30;;;;;;4996008;28;46310;-62
2023/01/22 09:46:57;;;;;;;14.40;9.13;;;1.80;57.50;;;;;;4994866;28;46880;-65
2023/01/22 09:49:53;;;;;;;16.88;9.25;;;1.90;57.80;;;;;;4995501;28;46408;-62
2023/01/22 09:52:19;;;;;;;23.38;12.50;;;1.70;57.70;;;;;;4996211;28;47188;-63
2023/01/22 09:54:45;;;;;;;21.45;13.65;;;1.80;57.60;;;;;;4994621;28;46390;-63
2023/01/22 09:57:14;;;;;;;17.63;11.07;;;1.90;56.20;;;;;;4978170;28;46366;-62
2023/01/22 10:00:01;;;;;;;15.15;9.15;;;2.00;55.30;;;;;;4996208;28;46625;-63
2023/01/22 10:02:37;;;;;;;16.00;10.43;;;2.20;54.70;;;;;;4994839;28;47119;-62
2023/01/22 10:05:42;;;;;;;17.20;10.75;;;2.30;53.70;;;;;;4996027;28;46396;-62
2023/01/22 10:08:24;;;;;;;14.75;8.80;;;2.30;53.90;;;;;;4969829;28;46693;-64
2023/01/22 10:10:51;;;;;;;16.63;9.63;;;2.50;53.50;;;;;;4994736;28;46562;-64
2023/01/22 10:13:19;;;;;;;16.38;10.80;;;2.70;53.30;;;;;;4995544;28;47890;-63
2023/01/22 10:15:47;;;;;;;20.90;10.75;;;2.90;52.70;;;;;;4995283;28;46366;-63
2023/01/22 10:18:30;;;;;;;16.08;9.55;;;3.00;52.40;;;;;;4996151;28;46442;-63
2023/01/22 10:20:59;;;;;;;14.30;9.52;;;2.80;52.30;;;;;;4994109;28;46404;-63
2023/01/22 10:23:25;;;;;;;17.23;9.18;;;2.60;53.40;;;;;;4995934;28;46644;-63
2023/01/22 10:25:58;;;;;;;16.08;10.30;;;2.20;54.40;;;;;;4994587;28;47099;-61
2023/01/22 10:28:26;;;;;;;17.35;10.88;;;2.10;55.10;;;;;;4994944;28;46550;-64
2023/01/22 10:30:57;;;;;;;17.75;11.25;;;2.40;54.30;;;;;;4993693;28;46643;-62
2023/01/22 10:33:24;;;;;;;14.48;9.32;;;2.70;53.40;;;;;;4993311;28;46444;-63
2023/01/22 10:35:52;;;;;;;15.15;9.10;;;3.10;52.70;;;;;;4993769;28;46395;-63
2023/01/22 10:38:26;;;;;;;13.95;9.05;;;3.00;52.60;;;;;;5003599;28;47254;-64
2023/01/22 10:40:55;;;;;;;18.50;10.20;;;3.00;52.30;;;;;;4994559;28;46638;-64
2023/01/22 10:43:21;;;;;;;24.42;13.10;;;3.20;51.70;;;;;;4994399;28;46313;-63
2023/01/22 10:45:51;;;;;;;19.30;11.40;;;3.30;50.50;;;;;;4992816;28;46400;-62
2023/01/22 10:48:17;;;;;;;43.13;18.85;;;3.40;50.20;;;;;;4994260;28;46853;-63
2023/01/22 10:50:44;;;;;;;20.33;10.90;;;3.40;49.30;;;;;;4992654;28;46542;-62
2023/01/22 10:53:23;;;;;;;17.13;10.90;;;3.40;48.80;;;;;;4993361;28;48059;-62
2023/01/22 10:55:55;;;;;;;16.48;10.35;;;3.50;49.10;;;;;;4993603;28;46528;-63
2023/01/22 10:58:23;;;;;;;16.15;10.40;;;3.60;48.40;;;;;;4994257;28;46479;-62
2023/01/22 11:01:01;;;;;;;18.88;10.63;;;3.90;48.00;;;;;;4994986;28;46548;-63
2023/01/22 11:03:36;;;;;;;14.00;9.43;;;4.30;47.70;;;;;;4997824;28;46483;-63
2023/01/22 11:06:17;;;;;;;16.33;10.10;;;4.70;46.60;;;;;;4998689;28;46462;-62
2023/01/22 11:08:52;;;;;;;19.00;11.10;;;5.00;46.80;;;;;;4995692;28;46388;-62
2023/01/22 11:11:25;;;;;;;16.90;9.90;;;5.30;46.20;;;;;;4996898;28;46673;-61
2023/01/22 11:14:05;;;;;;;15.52;9.23;;;5.50;45.00;;;;;;4995074;28;46728;-61
2023/01/22 11:16:37;;;;;;;14.35;9.73;;;5.70;45.00;;;;;;4996730;28;46624;-61
2023/01/22 11:19:13;;;;;;;13.95;9.35;;;5.90;44.50;;;;;;4996838;28;45796;-62
2023/01/22 11:21:46;;;;;;;15.47;9.27;;;5.90;44.30;;;;;;4997865;28;46480;-61
2023/01/22 11:24:18;;;;;;;14.27;10.07;;;5.90;44.40;;;;;;4995983;28;46188;-62
2023/01/22 11:27:24;;;;;;;15.70;10.10;;;5.80;44.30;;;;;;4996756;28;46635;-62
2023/01/22 11:30:20;;;;;;;17.10;10.13;;;5.90;43.80;;;;;;4910152;28;46064;-61
2023/01/22 11:33:27;;;;;;;16.63;10.00;;;5.80;43.70;;;;;;4992664;28;46408;-60
2023/01/22 11:36:15;;;;;;;15.23;9.67;;;5.70;43.70;;;;;;4994783;28;46391;-63
2023/01/22 11:38:50;;;;;;;17.98;9.85;;;5.80;43.90;;;;;;4995039;28;46475;-62
2023/01/22 11:41:46;;;;;;;14.03;9.80;;;5.90;44.10;;;;;;4993753;28;45862;-61
2023/01/22 11:44:18;;;;;;;14.87;10.23;;;6.10;43.60;;;;;;4995840;28;46422;-63
2023/01/22 11:47:10;;;;;;;15.63;10.40;;;6.20;43.30;;;;;;4993919;28;46349;-63
2023/01/22 11:49:44;;;;;;;15.53;9.33;;;6.30;42.90;;;;;;4995514;28;46482;-62
2023/01/22 11:52:09;;;;;;;15.77;9.60;;;6.30;43.20;;;;;;4992654;28;46475;-64
2023/01/22 11:54:47;;;;;;;15.60;9.60;;;6.20;43.60;;;;;;4995023;28;46549;-63
2023/01/22 11:57:31;;;;;;;15.20;10.53;;;6.30;43.70;;;;;;4993825;28;47042;-63
2023/01/22 12:00:07;;;;;;;16.10;10.13;;;6.30;43.90;;;;;;4994342;28;46514;-62
2023/01/22 12:03:09;;;;;;;14.80;9.60;;;6.30;44.60;;;;;;4995087;28;46384;-63
2023/01/22 12:06:25;;;;;;;14.37;9.67;;;6.50;44.30;;;;;;4994708;28;46324;-62
2023/01/22 12:09:02;;;;;;;21.90;10.80;;;6.50;44.40;;;;;;4913609;28;46573;-61
2023/01/22 12:12:00;;;;;;;19.60;12.30;;;6.70;44.10;;;;;;4916402;28;46448;-63
2023/01/22 12:14:35;;;;;;;16.50;11.03;;;6.80;44.10;;;;;;4977546;28;46464;-62
2023/01/22 12:17:10;;;;;;;17.27;11.50;;;6.80;44.10;;;;;;4997392;28;46488;-62
2023/01/22 12:20:07;;;;;;;15.30;10.10;;;6.90;44.00;;;;;;4998795;28;47049;-63
2023/01/22 12:23:07;;;;;;;16.80;10.90;;;7.00;43.80;;;;;;4996392;28;46502;-63
2023/01/22 12:25:41;;;;;;;18.60;10.83;;;7.10;43.90;;;;;;4963295;28;46773;-63
2023/01/22 12:28:10;;;;;;;13.93;9.90;;;7.30;43.70;;;;;;4998337;28;46718;-62
2023/01/22 12:30:44;;;;;;;16.37;10.80;;;7.30;43.30;;;;;;4996985;28;46153;-64
2023/01/22 12:33:13;;;;;;;18.93;12.07;;;7.30;43.50;;;;;;4997039;28;46598;-63
2023/01/22 12:35:39;;;;;;;18.20;11.67;;;7.40;42.80;;;;;;4997918;28;46325;-63
2023/01/22 12:38:25;;;;;;;20.03;12.00;;;7.60;42.20;;;;;;4997027;28;46483;-62
2023/01/22 12:40:54;;;;;;;18.63;11.50;;;7.80;41.90;;;;;;4997235;28;46569;-63
2023/01/22 12:43:29;;;;;;;19.53;11.50;;;7.80;41.90;;;;;;4997844;28;46583;-62
2023/01/22 12:46:07;;;;;;;16.83;11.07;;;8.00;41.10;;;;;;4996378;28;46376;-63
2023/01/22 12:48:38;;;;;;;17.50;11.87;;;8.20;40.20;;;;;;4997945;28;46585;-62
2023/01/22 12:51:04;;;;;;;17.63;10.93;;;8.30;40.00;;;;;;4997033;28;47121;-63
2023/01/22 12:53:37;;;;;;;18.53;10.60;;;8.50;39.70;;;;;;4993644;28;47306;-62
2023/01/22 12:56:06;;;;;;;17.90;11.27;;;8.50;39.30;;;;;;4997692;28;46399;-63